首页
METAR-TAF:

METAR-TAF

机场 :

Air_Force_Base

Plattsburgh, 紐約州, 美国

纬度: 44-39N, 经度: 073-28W, 海拔: 72米

当前天气观测

该预报发布于17分钟前的15:53 UTC
风速16节,风向南转南东,有时为20节阵风
温度 2°C
湿度 60%
气压 1027 hPa
能見度: 16.1公里
天空无云

METAR: KPBG 131553Z AUTO 16016G20KT 10SM CLR 02/M05 A3034 RMK AO2 SLP277 T00171050

时间: 11:10 (16:10 UTC)

预报

该预报发布于4小时和39分钟前的11:31 UTC
预报有效从13日的 12点(UTC)到 14日的 12点(UTC)
风速11节,风向南转南东
能見度: 10公里
散云层高于9000英尺
从 13日的 2100点(UTC)
风速5节,风向
能見度: 10公里
阴天层高于3500英尺
附近有阵雨
从 13日的 2200点(UTC)
风速8节,风向南转南东
能見度: 10公里
阴天层高于2500英尺
附近有阵雨
从 14日的 0800点(UTC)
风速5节,风向南转南东
能見度: 6.4公里
阴天层高于2000英尺
小雨, 轻雾
从 14日的 1000点(UTC)
风速3节,风向多变
能見度: 6.4公里
阴天层高于1500英尺
小雨, 轻雾

TAF: KPBG 131131Z 1312/1412 16011KT P6SM SCT090 FM132100 17005KT P6SM VCSH OVC035 FM132200 16008KT P6SM VCSH OVC025 FM140800 15005KT 4SM -RA BR OVC020 WS020/17040KT FM141000 VRB03KT 4SM -RA BR OVC015

超过4000个机场的气象观测和天气预报(METAR&TAF报告)。

可查询的气象台以黄色和红色小点在地图上表示。

将鼠标移到小点上方,可查看气象台名称。

然后点击查看天气观测和预报。

如需切换地图:点击带黑十字的绿色按钮放大地图;点击带横线的绿色按钮缩小地图;或者点击绿色箭头查看邻近地区的地图。


METAR-TAF: